createdAt,value
2018-03-20T00:02:02.568Z,-3.82
2018-03-20T00:04:30.840Z,-3.89
2018-03-20T00:06:59.119Z,-3.99
2018-03-20T00:09:27.393Z,-3.98
2018-03-20T00:11:55.835Z,-4.06
2018-03-20T00:14:24.096Z,-4.07
2018-03-20T00:16:53.116Z,-4.34
2018-03-20T00:19:21.400Z,-4.26
2018-03-20T00:21:49.661Z,-4.30
2018-03-20T00:24:17.916Z,-4.45
2018-03-20T00:26:46.967Z,-4.52
2018-03-20T00:29:15.217Z,-4.40
2018-03-20T00:31:43.479Z,-4.44
2018-03-20T00:34:11.763Z,-4.42
2018-03-20T00:36:40.039Z,-4.55
2018-03-20T00:39:08.364Z,-4.50
2018-03-20T00:41:36.639Z,-4.47
2018-03-20T00:44:04.893Z,-4.51
2018-03-20T00:46:33.218Z,-4.55
2018-03-20T00:49:02.248Z,-4.56
2018-03-20T00:51:30.504Z,-4.75
2018-03-20T00:53:58.810Z,-4.76
2018-03-20T00:56:27.072Z,-4.80
2018-03-20T00:58:55.343Z,-4.79
2018-03-20T01:01:23.624Z,-4.86
2018-03-20T01:03:51.885Z,-4.88
2018-03-20T01:06:20.152Z,-4.96
2018-03-20T01:08:49.191Z,-4.81
2018-03-20T01:11:17.495Z,-4.74
2018-03-20T01:13:45.768Z,-4.97
2018-03-20T01:16:14.032Z,-4.87
2018-03-20T01:18:42.304Z,-4.92
2018-03-20T01:21:10.587Z,-5.05
2018-03-20T01:23:38.851Z,-5.04
2018-03-20T01:26:07.119Z,-5.17
2018-03-20T01:28:35.399Z,-5.25
2018-03-20T01:31:03.665Z,-5.22
2018-03-20T01:33:31.936Z,-5.24
2018-03-20T01:36:00.249Z,-5.19
2018-03-20T01:38:28.507Z,-5.32
2018-03-20T01:40:56.765Z,-5.27
2018-03-20T01:43:25.072Z,-5.23
2018-03-20T01:45:53.332Z,-5.15
2018-03-20T01:48:21.588Z,-5.17
2018-03-20T01:50:49.867Z,-5.22
2018-03-20T01:53:19.851Z,-5.20
2018-03-20T01:55:48.898Z,-5.26
2018-03-20T01:58:17.173Z,-5.45
2018-03-20T02:00:45.440Z,-5.67
2018-03-20T02:03:13.725Z,-5.69
2018-03-20T02:05:41.984Z,-5.55
2018-03-20T02:08:10.248Z,-5.57
2018-03-20T02:10:38.520Z,-5.66
2018-03-20T02:13:06.776Z,-5.85
2018-03-20T02:15:35.823Z,-6.01
2018-03-20T02:18:04.100Z,-5.87
2018-03-20T02:20:32.362Z,-5.83
2018-03-20T02:23:00.648Z,-5.84
2018-03-20T02:25:28.943Z,-5.92
2018-03-20T02:27:57.216Z,-6.02
2018-03-20T02:30:25.965Z,-6.10
2018-03-20T02:32:54.234Z,-6.32
2018-03-20T02:35:22.493Z,-6.34
2018-03-20T02:37:50.799Z,-6.24
2018-03-20T02:40:19.065Z,-6.25
2018-03-20T02:42:47.328Z,-6.36
2018-03-20T02:45:15.623Z,-6.49
2018-03-20T02:47:43.890Z,-6.59
2018-03-20T02:50:12.158Z,-6.65
2018-03-20T02:52:41.220Z,-6.45
2018-03-20T02:55:10.270Z,-6.37
2018-03-20T02:57:38.567Z,-6.41
2018-03-20T03:00:06.857Z,-6.76
2018-03-20T03:02:35.121Z,-6.50
2018-03-20T03:05:03.447Z,-6.35
2018-03-20T03:07:32.546Z,-6.26
2018-03-20T03:10:00.756Z,-6.15
2018-03-20T03:12:29.028Z,-6.10
2018-03-20T03:14:57.331Z,-6.04
2018-03-20T03:17:25.600Z,-6.06
2018-03-20T03:19:53.884Z,-6.01
2018-03-20T03:22:22.187Z,-5.92
2018-03-20T03:24:51.224Z,-5.80
2018-03-20T03:27:19.498Z,-5.71
2018-03-20T03:29:47.774Z,-5.57
2018-03-20T03:32:16.035Z,-5.51
2018-03-20T03:34:44.308Z,-5.35
2018-03-20T03:37:12.567Z,-5.11
2018-03-20T03:39:41.643Z,-5.04
2018-03-20T03:42:09.899Z,-4.98
2018-03-20T03:44:38.163Z,-4.76
2018-03-20T03:47:06.499Z,-4.62
2018-03-20T03:49:35.524Z,-4.44
2018-03-20T03:52:03.784Z,-4.27
2018-03-20T03:54:32.074Z,-4.35
2018-03-20T03:57:00.332Z,-4.14
2018-03-20T03:59:28.602Z,-4.09
2018-03-20T04:01:57.677Z,-4.15
2018-03-20T04:04:26.705Z,-3.94
2018-03-20T04:06:54.968Z,-3.88
2018-03-20T04:09:23.248Z,-3.94
2018-03-20T04:11:51.525Z,-3.96
2018-03-20T04:14:19.792Z,-3.92
2018-03-20T04:16:48.839Z,-3.93
2018-03-20T04:19:17.109Z,-3.84
2018-03-20T04:21:45.387Z,-3.92
2018-03-20T04:24:13.644Z,-4.04
2018-03-20T04:26:41.919Z,-3.96
2018-03-20T04:29:10.180Z,-3.98
2018-03-20T04:31:38.449Z,-4.01
2018-03-20T04:34:06.727Z,-3.93
2018-03-20T04:36:35.024Z,-3.98
2018-03-20T04:39:03.292Z,-4.18
2018-03-20T04:41:31.560Z,-4.07
2018-03-20T04:44:00.152Z,-4.18
2018-03-20T04:46:28.445Z,-4.01
2018-03-20T04:48:56.710Z,-4.03
2018-03-20T04:51:24.976Z,-4.02
2018-03-20T04:53:53.257Z,-3.95
2018-03-20T04:56:21.515Z,-4.03
2018-03-20T04:58:49.810Z,-4.36
2018-03-20T05:01:18.071Z,-4.17
2018-03-20T05:03:46.337Z,-3.99
2018-03-20T05:06:15.396Z,-3.94
2018-03-20T05:08:43.688Z,-3.77
2018-03-20T05:11:12.006Z,-3.66
2018-03-20T05:13:40.265Z,-3.74
2018-03-20T05:16:09.291Z,-3.56
2018-03-20T05:18:54.350Z,-3.53
2018-03-20T05:21:36.328Z,-3.98
2018-03-20T05:24:04.588Z,-4.56
2018-03-20T05:26:33.640Z,-4.70
2018-03-20T05:29:01.912Z,-4.21
2018-03-20T05:31:30.182Z,-3.92
2018-03-20T05:33:58.460Z,-3.71
2018-03-20T05:36:26.739Z,-3.56
2018-03-20T05:38:55.011Z,-3.27
2018-03-20T05:41:23.275Z,-3.13
2018-03-20T05:43:51.568Z,-3.17
2018-03-20T05:46:25.284Z,-3.01
2018-03-20T05:49:00.960Z,-2.93
2018-03-20T05:54:34.962Z,-2.98
2018-03-20T05:57:03.253Z,-2.74
2018-03-20T05:59:31.532Z,-2.63
2018-03-20T06:02:02.933Z,-2.83
2018-03-20T06:04:31.196Z,-2.62
2018-03-20T06:06:59.487Z,-2.54
2018-03-20T06:09:27.764Z,-2.47
2018-03-20T06:11:56.033Z,-2.28
2018-03-20T06:14:24.296Z,-2.29
2018-03-20T06:16:52.597Z,-2.21
2018-03-20T06:19:20.862Z,-2.15
2018-03-20T06:21:49.182Z,-2.02
2018-03-20T06:24:17.439Z,-2.08
2018-03-20T06:26:45.705Z,-2.14
2018-03-20T06:29:13.967Z,-1.99
2018-03-20T06:31:42.234Z,-1.76
2018-03-20T06:34:10.556Z,-1.56
2018-03-20T06:36:38.844Z,-1.61
2018-03-20T06:39:07.245Z,-1.75
2018-03-20T06:41:36.280Z,-2.12
2018-03-20T06:44:04.620Z,-1.58
2018-03-20T06:46:33.648Z,-1.36
2018-03-20T06:49:01.912Z,-1.20
2018-03-20T06:51:30.195Z,-0.99
2018-03-20T06:53:58.473Z,-0.90
2018-03-20T06:56:26.736Z,-0.69
2018-03-20T06:58:55.024Z,-0.69
2018-03-20T07:01:23.293Z,-0.77
2018-03-20T07:03:51.563Z,-0.55
2018-03-20T07:06:19.864Z,-0.38
2018-03-20T07:08:48.124Z,-0.34
2018-03-20T07:11:16.396Z,-0.16
2018-03-20T07:13:44.649Z,0.02
2018-03-20T07:16:13.671Z,0.20
2018-03-20T07:18:41.949Z,-0.08
2018-03-20T07:21:10.212Z,0.31
2018-03-20T07:23:38.477Z,0.53
2018-03-20T07:26:07.509Z,0.83
2018-03-20T07:28:35.755Z,0.86
2018-03-20T07:31:04.012Z,0.99
2018-03-20T07:33:33.053Z,1.06
2018-03-20T07:36:01.301Z,1.22
2018-03-20T07:38:29.569Z,0.91
2018-03-20T07:40:58.579Z,0.76
2018-03-20T07:43:26.836Z,1.05
2018-03-20T07:45:55.878Z,0.78
2018-03-20T07:48:24.915Z,0.54
2018-03-20T07:50:53.180Z,0.84
2018-03-20T07:53:21.442Z,0.62
2018-03-20T07:55:49.704Z,0.95
2018-03-20T07:58:17.984Z,1.35
2018-03-20T08:00:46.236Z,1.13
2018-03-20T08:03:14.542Z,0.88
2018-03-20T08:05:42.835Z,0.48
2018-03-20T08:08:11.079Z,0.66
2018-03-20T08:10:39.337Z,0.55
2018-03-20T08:13:07.633Z,0.62
2018-03-20T08:15:35.883Z,0.46
2018-03-20T08:18:04.153Z,0.70
2018-03-20T08:20:32.395Z,0.75
2018-03-20T08:23:00.694Z,1.21
2018-03-20T08:25:29.701Z,1.23
2018-03-20T08:27:58.021Z,1.03
2018-03-20T08:30:26.251Z,1.07
2018-03-20T08:32:54.516Z,1.53
2018-03-20T08:35:22.781Z,1.08
2018-03-20T08:37:51.832Z,1.32
2018-03-20T08:40:20.084Z,1.52
2018-03-20T08:42:48.354Z,1.58
2018-03-20T08:45:16.650Z,1.89
2018-03-20T08:47:44.901Z,1.76
2018-03-20T08:50:13.182Z,1.84
2018-03-20T08:52:41.445Z,1.69
2018-03-20T08:55:09.708Z,1.59
2018-03-20T08:57:38.736Z,1.46
2018-03-20T09:00:07.004Z,1.60
2018-03-20T09:02:35.265Z,1.51
2018-03-20T09:05:03.528Z,1.49
2018-03-20T09:07:32.595Z,1.57
2018-03-20T09:10:00.851Z,1.87
2018-03-20T09:12:29.211Z,1.86
2018-03-20T09:14:57.380Z,2.08
2018-03-20T09:17:25.635Z,1.72
2018-03-20T09:19:53.891Z,1.72
2018-03-20T09:22:22.962Z,1.55
2018-03-20T09:24:51.215Z,1.84
2018-03-20T09:27:19.481Z,1.80
2018-03-20T09:29:47.736Z,1.85
2018-03-20T09:32:15.988Z,1.84
2018-03-20T09:34:45.030Z,1.92
2018-03-20T09:37:13.284Z,2.06
2018-03-20T09:39:41.545Z,2.19
2018-03-20T09:42:10.583Z,2.26
2018-03-20T09:44:38.843Z,2.19
2018-03-20T09:47:07.095Z,1.86
2018-03-20T09:49:35.377Z,1.80
2018-03-20T09:52:03.636Z,1.89
2018-03-20T09:54:32.650Z,1.52
2018-03-20T09:57:00.959Z,1.61
2018-03-20T09:59:29.208Z,1.55
2018-03-20T10:01:57.468Z,1.42
2018-03-20T10:04:26.505Z,1.73
2018-03-20T10:06:54.765Z,1.88
2018-03-20T10:09:23.024Z,1.61
2018-03-20T10:11:51.300Z,1.56
2018-03-20T10:14:19.551Z,1.71
2018-03-20T10:16:48.639Z,1.58
2018-03-20T10:19:16.901Z,1.45
2018-03-20T10:21:45.156Z,1.53
2018-03-20T10:24:13.408Z,1.66
2018-03-20T10:26:41.671Z,1.70
2018-03-20T10:29:09.949Z,1.74
2018-03-20T10:31:38.219Z,1.75
2018-03-20T10:34:06.491Z,1.81
2018-03-20T10:36:35.509Z,1.96
2018-03-20T10:39:03.763Z,1.85
2018-03-20T10:41:32.110Z,1.38
2018-03-20T10:44:00.344Z,1.59
2018-03-20T10:46:28.594Z,1.86
2018-03-20T10:48:56.933Z,1.87
2018-03-20T10:51:25.181Z,1.97
2018-03-20T10:53:53.428Z,2.26
2018-03-20T10:56:21.765Z,2.47
2018-03-20T10:58:50.014Z,2.41
2018-03-20T11:01:23.756Z,2.88
2018-03-20T11:03:52.768Z,3.00
2018-03-20T11:06:21.032Z,2.95
2018-03-20T11:08:50.094Z,3.08
2018-03-20T11:11:18.340Z,2.95
2018-03-20T11:13:46.588Z,3.16
2018-03-20T11:16:15.615Z,2.90
2018-03-20T11:18:43.866Z,3.20
2018-03-20T11:21:12.119Z,3.27
2018-03-20T11:23:41.156Z,3.73
2018-03-20T11:26:09.407Z,3.70
2018-03-20T11:28:37.664Z,3.96
2018-03-20T11:31:06.703Z,4.22
2018-03-20T11:33:34.955Z,4.64
2018-03-20T11:36:03.204Z,4.74
2018-03-20T11:38:31.472Z,5.02
2018-03-20T11:40:59.732Z,5.11
2018-03-20T11:43:27.986Z,4.19
2018-03-20T11:45:56.256Z,3.75
2018-03-20T11:48:24.511Z,4.04
2018-03-20T11:50:52.759Z,4.01
2018-03-20T11:53:21.797Z,4.33
2018-03-20T11:55:50.142Z,3.89
2018-03-20T11:58:18.331Z,4.13
2018-03-20T12:00:46.592Z,3.95
2018-03-20T12:03:15.631Z,3.94
2018-03-20T12:05:43.916Z,4.29
2018-03-20T12:08:29.936Z,4.13
2018-03-20T12:10:58.184Z,3.77
2018-03-20T12:13:26.456Z,3.97
2018-03-20T12:15:54.728Z,4.38
2018-03-20T12:18:22.976Z,4.72
2018-03-20T12:20:51.236Z,5.09
2018-03-20T12:23:20.268Z,5.52
2018-03-20T12:25:48.540Z,5.49
2018-03-20T12:28:16.791Z,5.53
2018-03-20T12:30:45.058Z,4.94
2018-03-20T12:33:14.072Z,5.90
2018-03-20T12:35:42.332Z,6.42
2018-03-20T12:38:11.357Z,6.23
2018-03-20T12:40:39.620Z,5.70
2018-03-20T12:43:07.869Z,5.45
2018-03-20T12:45:37.012Z,5.64
2018-03-20T12:48:05.261Z,5.39
2018-03-20T12:50:33.507Z,5.37
2018-03-20T12:53:02.566Z,5.33
2018-03-20T12:55:30.814Z,4.73
2018-03-20T12:57:59.059Z,5.83
2018-03-20T13:00:28.096Z,6.71
2018-03-20T13:02:56.352Z,7.02
2018-03-20T13:05:24.616Z,7.81
2018-03-20T13:07:53.667Z,7.91
2018-03-20T13:10:21.908Z,7.92
2018-03-20T13:12:50.163Z,7.17
2018-03-20T13:15:18.427Z,6.87
2018-03-20T13:17:47.451Z,6.05
2018-03-20T13:20:15.723Z,6.15
2018-03-20T13:22:43.986Z,7.12
2018-03-20T13:25:12.253Z,7.79
2018-03-20T13:27:41.274Z,8.87
2018-03-20T13:30:09.516Z,8.60
2018-03-20T13:32:38.546Z,8.23
2018-03-20T13:35:06.791Z,7.83
2018-03-20T13:37:35.812Z,6.89
2018-03-20T13:40:04.084Z,7.36
2018-03-20T13:42:32.344Z,8.35
2018-03-20T13:45:00.588Z,8.87
2018-03-20T13:47:29.616Z,7.92
2018-03-20T13:49:57.882Z,7.22
2018-03-20T13:52:26.911Z,8.39
2018-03-20T13:54:55.160Z,8.87
2018-03-20T13:57:23.420Z,9.48
2018-03-20T13:59:52.460Z,10.60
2018-03-20T14:02:20.727Z,8.95
2018-03-20T14:04:49.001Z,7.80
2018-03-20T14:07:17.266Z,7.33
2018-03-20T14:09:45.512Z,7.85
2018-03-20T14:12:14.532Z,8.67
2018-03-20T14:14:42.837Z,8.59
2018-03-20T14:17:11.073Z,9.83
2018-03-20T14:19:40.095Z,9.94
2018-03-20T14:22:08.349Z,8.98
2018-03-20T14:24:36.594Z,7.02
2018-03-20T14:27:06.389Z,7.35
2018-03-20T14:29:34.636Z,7.27
2018-03-20T14:32:02.883Z,8.03
2018-03-20T14:34:31.159Z,9.62
2018-03-20T14:36:59.421Z,9.88
2018-03-20T14:39:28.453Z,11.15
2018-03-20T14:41:56.722Z,10.07
2018-03-20T14:44:24.964Z,9.92
2018-03-20T14:46:54.013Z,10.32
2018-03-20T14:49:22.268Z,9.38
2018-03-20T14:51:50.526Z,7.63
2018-03-20T14:54:19.556Z,7.49
2018-03-20T14:56:47.803Z,6.61
2018-03-20T14:59:16.058Z,6.47
2018-03-20T15:01:45.085Z,7.86
2018-03-20T15:04:13.340Z,8.64
2018-03-20T15:06:41.615Z,9.51
2018-03-20T15:09:10.643Z,10.12
2018-03-20T15:11:38.892Z,9.39
2018-03-20T15:14:07.182Z,8.13
2018-03-20T15:16:35.433Z,7.05
2018-03-20T15:19:04.464Z,6.55
2018-03-20T15:21:32.724Z,7.27
2018-03-20T15:24:00.978Z,8.29
2018-03-20T15:26:30.018Z,8.07
2018-03-20T15:28:58.272Z,7.58
2018-03-20T15:31:26.529Z,7.70
2018-03-20T15:33:54.801Z,7.97
2018-03-20T15:36:23.060Z,7.80
2018-03-20T15:38:52.072Z,7.37
2018-03-20T15:41:20.347Z,6.65
2018-03-20T15:43:48.602Z,6.44
2018-03-20T15:46:16.858Z,7.30
2018-03-20T15:48:45.131Z,8.18
2018-03-20T15:51:13.379Z,9.13
2018-03-20T15:53:41.636Z,9.50
2018-03-20T15:56:09.931Z,8.30
2018-03-20T15:58:38.205Z,8.54
2018-03-20T16:01:06.448Z,8.34
2018-03-20T16:03:35.539Z,8.01
2018-03-20T16:06:04.580Z,7.12
2018-03-20T16:08:32.887Z,6.20
2018-03-20T16:11:01.138Z,7.73
2018-03-20T16:13:29.461Z,8.88
2018-03-20T16:15:58.506Z,9.98
2018-03-20T16:18:26.966Z,10.27
2018-03-20T16:20:55.348Z,9.51
2018-03-20T16:23:23.637Z,10.07
2018-03-20T16:25:51.949Z,10.31
2018-03-20T16:28:20.320Z,9.44
2018-03-20T16:30:48.633Z,9.40
2018-03-20T16:33:16.920Z,9.86
2018-03-20T16:35:45.327Z,9.54
2018-03-20T16:38:13.723Z,8.76
2018-03-20T16:40:42.843Z,8.43
2018-03-20T16:43:11.261Z,8.12
2018-03-20T16:45:40.494Z,7.12
2018-03-20T16:48:09.691Z,6.83
2018-03-20T16:50:38.550Z,6.88
2018-03-20T16:53:07.425Z,6.20
2018-03-20T16:55:36.228Z,5.96
2018-03-20T16:58:05.016Z,5.51
2018-03-20T17:00:34.891Z,5.44
2018-03-20T17:03:03.626Z,5.22
2018-03-20T17:05:33.055Z,5.20
2018-03-20T17:08:03.181Z,5.23
2018-03-20T17:10:33.324Z,5.01
2018-03-20T17:13:03.066Z,4.78
2018-03-20T17:15:33.410Z,4.71
2018-03-20T17:18:04.331Z,4.67
2018-03-20T17:20:34.773Z,4.63
2018-03-20T17:23:04.608Z,4.44
2018-03-20T17:25:34.620Z,4.47
2018-03-20T17:28:04.668Z,4.35
2018-03-20T17:30:34.427Z,4.27
2018-03-20T17:33:05.114Z,4.11
2018-03-20T17:35:37.842Z,4.06
2018-03-20T17:38:07.721Z,3.96
2018-03-20T17:40:37.513Z,3.88
2018-03-20T17:43:07.364Z,3.81
2018-03-20T17:45:38.096Z,3.83
2018-03-20T17:48:08.831Z,3.87
2018-03-20T17:50:39.474Z,3.88
2018-03-20T17:53:09.374Z,3.82
2018-03-20T17:55:40.014Z,3.66
2018-03-20T17:58:10.662Z,3.68
2018-03-20T18:00:40.763Z,3.61
2018-03-20T18:03:11.571Z,3.56
2018-03-20T18:05:42.269Z,3.50
2018-03-20T18:08:12.439Z,3.58
2018-03-20T18:10:43.100Z,3.39
2018-03-20T18:13:13.186Z,3.37
2018-03-20T18:15:43.031Z,3.48
2018-03-20T18:18:12.413Z,3.42
2018-03-20T18:20:42.610Z,3.47
2018-03-20T18:23:12.571Z,3.47
2018-03-20T18:25:42.626Z,3.41
2018-03-20T18:28:12.895Z,3.42
2018-03-20T18:30:43.689Z,3.33
2018-03-20T18:33:13.724Z,3.18
2018-03-20T18:35:43.746Z,3.17
2018-03-20T18:38:14.514Z,3.12
2018-03-20T18:40:44.388Z,3.08
2018-03-20T18:43:15.290Z,3.26
2018-03-20T18:45:44.603Z,3.12
2018-03-20T18:48:14.964Z,3.17
2018-03-20T18:50:44.258Z,3.15
2018-03-20T18:53:14.625Z,3.13
2018-03-20T18:55:43.878Z,3.10
2018-03-20T18:58:13.296Z,2.94
2018-03-20T19:00:43.268Z,2.95
2018-03-20T19:03:12.527Z,2.95
2018-03-20T19:05:41.931Z,2.94
2018-03-20T19:08:11.398Z,2.96
2018-03-20T19:10:41.588Z,2.91
2018-03-20T19:13:10.897Z,2.88
2018-03-20T19:15:40.162Z,2.80
2018-03-20T19:18:09.609Z,2.63
2018-03-20T19:20:39.850Z,2.76
2018-03-20T19:23:09.225Z,2.67
2018-03-20T19:25:39.232Z,2.78
2018-03-20T19:28:08.727Z,2.72
2018-03-20T19:30:38.664Z,2.60
2018-03-20T19:33:08.884Z,2.66
2018-03-20T19:35:38.670Z,2.54
2018-03-20T19:38:08.743Z,2.33
2018-03-20T19:40:38.527Z,2.24
2018-03-20T19:43:08.700Z,2.34
2018-03-20T19:45:38.621Z,2.42
2018-03-20T19:48:08.661Z,2.30
2018-03-20T19:50:38.517Z,2.28
2018-03-20T19:53:11.018Z,2.23
2018-03-20T19:55:41.665Z,2.33
2018-03-20T19:58:12.481Z,2.29
2018-03-20T20:00:42.335Z,2.37
2018-03-20T20:03:11.755Z,2.35
2018-03-20T20:05:41.231Z,2.27
2018-03-20T20:08:11.535Z,2.41
2018-03-20T20:10:40.942Z,2.45
2018-03-20T20:13:10.528Z,2.20
2018-03-20T20:15:40.690Z,2.27
2018-03-20T20:18:10.998Z,2.15
2018-03-20T20:20:40.473Z,2.34
2018-03-20T20:23:10.699Z,2.25
2018-03-20T20:25:40.016Z,2.09
2018-03-20T20:28:09.530Z,2.21
2018-03-20T20:30:38.830Z,2.07
2018-03-20T20:33:08.244Z,2.24
2018-03-20T20:35:37.566Z,2.29
2018-03-20T20:38:06.993Z,2.22
2018-03-20T20:40:36.445Z,2.26
2018-03-20T20:43:07.140Z,2.14
2018-03-20T20:45:37.879Z,2.14
2018-03-20T20:48:08.088Z,2.26
2018-03-20T20:50:38.712Z,2.17
2018-03-20T20:53:09.503Z,2.13
2018-03-20T20:55:39.696Z,2.12
2018-03-20T20:58:09.583Z,2.05
2018-03-20T21:00:39.634Z,2.15
2018-03-20T21:03:10.392Z,2.00
2018-03-20T21:05:40.323Z,1.92
2018-03-20T21:08:10.379Z,1.97
2018-03-20T21:10:41.156Z,2.10
2018-03-20T21:13:11.278Z,1.98
2018-03-20T21:15:41.200Z,1.92
2018-03-20T21:18:11.603Z,2.05
2018-03-20T21:20:41.488Z,2.10
2018-03-20T21:23:11.474Z,2.18
2018-03-20T21:25:41.486Z,2.09
2018-03-20T21:28:11.531Z,2.07
2018-03-20T21:30:42.308Z,2.13
2018-03-20T21:33:12.204Z,2.12
2018-03-20T21:35:41.943Z,2.03
2018-03-20T21:38:12.425Z,2.01
2018-03-20T21:40:43.089Z,1.96
2018-03-20T21:43:13.200Z,1.92
2018-03-20T21:45:43.313Z,1.90
2018-03-20T21:48:14.662Z,1.85
2018-03-20T21:50:44.470Z,1.83
2018-03-20T21:53:15.070Z,1.90
2018-03-20T21:55:44.666Z,1.89
2018-03-20T21:58:14.469Z,1.90
2018-03-20T22:00:44.014Z,1.89
2018-03-20T22:03:14.745Z,1.89
2018-03-20T22:05:44.659Z,1.89
2018-03-20T22:08:14.472Z,1.81
2018-03-20T22:10:45.443Z,1.78
2018-03-20T22:13:15.512Z,1.76
2018-03-20T22:15:45.301Z,1.78
2018-03-20T22:18:15.223Z,1.77
2018-03-20T22:20:45.295Z,1.80
2018-03-20T22:23:15.204Z,1.84
2018-03-20T22:25:44.568Z,1.81
2018-03-20T22:28:13.498Z,1.85
2018-03-20T22:30:41.841Z,1.86
2018-03-20T22:33:10.880Z,1.97
2018-03-20T22:35:39.147Z,1.87
2018-03-20T22:38:07.423Z,1.88
2018-03-20T22:40:35.760Z,1.96
2018-03-20T22:43:04.785Z,1.60
2018-03-20T22:45:33.052Z,1.80
2018-03-20T22:48:02.071Z,1.86
2018-03-20T22:50:30.333Z,1.91
2018-03-20T22:52:58.596Z,1.89
2018-03-20T22:55:27.616Z,1.88
2018-03-20T22:57:55.882Z,1.80
2018-03-20T23:00:29.100Z,1.83
2018-03-20T23:02:57.386Z,1.83
2018-03-20T23:05:25.636Z,1.77
2018-03-20T23:07:53.888Z,1.71
2018-03-20T23:10:22.160Z,1.63
2018-03-20T23:12:50.412Z,1.52
2018-03-20T23:15:18.692Z,1.44
2018-03-20T23:17:47.727Z,1.38
2018-03-20T23:20:15.981Z,1.38
2018-03-20T23:22:44.267Z,1.35
2018-03-20T23:25:12.537Z,1.21
2018-03-20T23:27:40.797Z,1.17
2018-03-20T23:30:09.816Z,1.09
2018-03-20T23:32:38.203Z,1.04
2018-03-20T23:35:06.464Z,0.96
2018-03-20T23:37:34.719Z,0.65
2018-03-20T23:40:03.765Z,0.39
2018-03-20T23:42:32.020Z,0.51
2018-03-20T23:45:00.298Z,0.38
2018-03-20T23:47:28.573Z,0.36
2018-03-20T23:49:56.828Z,0.23
2018-03-20T23:52:25.162Z,0.11
2018-03-20T23:54:53.460Z,-0.14
2018-03-20T23:57:21.741Z,-0.42
2018-03-20T23:59:50.765Z,-0.48
